Latest Weather Observations for Warrnambool

IDV60801

Issued at 7:03 pm EDT Monday 23 October 2017 (issued every 30 minutes, with the page automatically refreshed every 10 minutes)

About weather observations | Map of weather stations | Latest weather observations for VIC | Other Formats
Station Details ID: 090186 Name: WARRNAMBOOL AIRPORT NDB Lat: -38.29 Lon: 142.45 Height: 70.8 m
Data from the previous 72 hours. | See also: Recent months at Warrnambool
Date/Time
EDT
Temp
°C
App
Temp
°C
Dew
Point
°C
Rel
Hum
%
Delta-T
°C
Wind Press
QNH
hPa
Press
MSL
hPa
Rain since
9am
mm
Dir  Spd
km/h
Gust
km/h
Spd
kts
Gust
kts
23/07:00pm 13.4 11.0 11.3 87 1.1 SW 15 20 8 11 1018.5 1018.5 0.0
23/06:30pm 13.4 10.8 10.6 83 1.5 SW 15 19 8 10 1018.3 1018.3 0.0
23/06:00pm 13.8 11.7 11.1 84 1.4 SSW 13 19 7 10 1018.1 1018.1 0.0
23/05:30pm 13.9 11.5 11.4 85 1.3 SSW 15 19 8 10 1018.1 1018.1 0.0
23/05:00pm 14.0 12.2 10.8 81 1.7 SSW 11 15 6 8 1018.0 1018.0 0.0
23/04:30pm 13.9 11.6 10.5 80 1.8 SSW 13 17 7 9 1018.1 1018.1 0.0
23/04:00pm 13.8 12.3 10.6 81 1.7 SW 9 15 5 8 1018.3 1018.3 0.0
23/03:30pm 14.3 12.6 11.3 82 1.6 SW 11 15 6 8 1018.5 1018.5 0.0
23/03:00pm 14.1 12.6 10.5 79 1.9 SSW 9 13 5 7 1018.5 1018.5 0.0
23/02:30pm 14.1 12.0 11.3 83 1.5 SSW 13 17 7 9 1018.8 1018.8 0.0
23/02:00pm 13.8 11.8 11.5 86 1.2 SSW 13 19 7 10 1018.9 1018.9 0.0
23/01:30pm 13.6 10.6 11.8 89 1.0 SSW 19 22 10 12 1019.1 1019.1 0.0
23/01:00pm 13.7 10.2 10.1 79 1.9 SW 19 22 10 12 1019.1 1019.1 0.0
23/12:30pm 14.6 12.9 10.0 74 2.4 SW 9 13 5 7 1019.3 1019.3 0.0
23/12:00pm 14.3 12.7 10.1 76 2.2 SSW 9 13 5 7 1019.4 1019.4 0.0
23/11:30am 14.5 13.2 9.9 74 2.4 WSW 7 13 4 7 1019.3 1019.3 0.0
23/11:00am 13.9 11.0 9.7 76 2.2 WSW 15 20 8 11 1019.7 1019.7 0.0
23/10:30am 13.7 11.9 10.7 82 1.6 WSW 11 15 6 8 1019.7 1019.7 0.0
23/10:00am 13.7 12.7 10.3 80 1.8 W 6 15 3 8 1019.7 1019.7 0.0
23/09:30am 12.7 10.8 10.6 87 1.1 WNW 11 15 6 8 1019.7 1019.7 0.0
23/09:00am 12.4 10.6 12.2 99 0.1 NW 13 19 7 10 1019.7 1019.7 1.8
23/08:30am 11.4 10.1 11.4 100 0.0 WNW 9 15 5 8 1019.4 1019.4 1.8
23/08:25am 10.9 9.9 10.9 100 0.0 NW 7 13 4 7 1019.3 1019.3 1.8
23/08:05am 10.5 9.0 10.5 100 0.0 NNW 9 11 5 6 1019.0 1019.0 1.8
23/08:00am 10.5 8.6 10.5 100 0.0 NNW 11 13 6 7 1018.9 1018.9 1.8
23/07:30am 10.3 9.1 10.3 100 0.0 N 7 11 4 6 1018.7 1018.7 1.8
23/07:00am 10.2 9.0 10.2 100 0.0 NNW 7 9 4 5 1018.8 1018.8 1.8
23/06:50am 9.9 8.6 9.9 100 0.0 NNW 7 9 4 5 1018.8 1018.8 1.8
23/06:35am 9.5 7.7 9.5 100 0.0 NNW 9 11 5 6 1018.8 1018.8 1.8
23/06:30am 9.7 8.0 9.7 100 0.0 NNW 9 11 5 6 1018.7 1018.7 1.8
23/06:00am 9.5 7.3 9.5 100 0.0 NW 11 11 6 6 1018.9 1018.9 1.8
23/05:56am 9.3 7.5 9.3 100 0.0 NW 9 11 5 6 1018.9 1018.9 1.8
23/05:30am 10.1 9.0 10.1 100 0.0 W 6 7 3 4 1018.9 1018.9 1.8
23/05:25am 10.2 9.0 10.2 100 0.0 W 7 7 4 4 1018.9 1018.9 1.8
23/05:14am 10.5 9.4 10.5 100 0.0 WSW 7 7 4 4 1018.9 1018.9 1.8
23/05:05am 10.5 9.4 10.5 100 0.0 WSW 7 9 4 5 1019.0 1019.0 1.6
23/05:01am 10.4 9.2 10.4 100 0.0 WSW 7 9 4 5 1019.1 1019.1 1.6
23/05:00am 10.4 9.2 10.4 100 0.0 WSW 7 9 4 5 1019.1 1019.1 1.6
23/04:59am 10.4 9.2 10.4 100 0.0 WSW 7 9 4 5 1019.1 1019.1 1.6
23/04:56am 10.4 9.2 10.4 100 0.0 WSW 7 9 4 5 1019.1 1019.1 1.6
23/04:30am 10.4 8.9 10.4 100 0.0 WNW 9 13 5 7 1019.3 1019.3 1.6
23/04:03am 10.3 8.3 10.1 99 0.1 NW 11 13 6 7 1019.3 1019.3 1.0
23/04:00am 10.4 8.4 10.2 99 0.1 NW 11 13 6 7 1019.3 1019.3 1.0
23/03:55am 10.3 8.3 10.1 99 0.1 NW 11 13 6 7 1019.2 1019.2 1.0
23/03:30am 10.7 8.8 10.5 99 0.1 WNW 11 15 6 8 1019.2 1019.2 1.0
23/03:04am 10.2 8.6 10.1 99 0.1 WNW 9 9 5 5 1019.4 1019.4 0.8
23/03:00am 10.2 8.9 10.1 99 0.1 W 7 9 4 5 1019.4 1019.4 0.8
23/02:56am 10.1 8.8 10.0 99 0.1 W 7 9 4 5 1019.4 1019.4 0.8
23/02:30am 9.7 7.9 9.6 99 0.1 NW 9 11 5 6 1019.4 1019.4 0.6
23/02:09am 10.3 8.3 10.1 99 0.1 NW 11 13 6 7 1019.5 1019.5 0.6
23/02:08am 10.2 8.2 10.1 99 0.1 NW 11 13 6 7 1019.5 1019.5 0.6
23/02:00am 10.3 8.3 10.1 99 0.1 NW 11 13 6 7 1019.5 1019.5 0.6
23/01:30am 10.4 9.2 10.2 99 0.1 WNW 7 11 4 6 1019.9 1019.9 0.4
23/01:29am 10.4 9.2 10.2 99 0.1 WNW 7 9 4 5 1019.9 1019.9 0.4
23/01:28am 10.4 9.2 10.2 99 0.1 WNW 7 9 4 5 1019.9 1019.9 0.4
23/01:00am 10.4 8.0 10.2 99 0.1 WNW 13 15 7 8 1019.9 1019.9 0.0
23/12:30am 10.3 8.6 10.0 98 0.2 WNW 9 13 5 7 1020.1 1020.1 0.0
23/12:18am 10.3 8.7 10.1 99 0.1 WNW 9 13 5 7 1020.1 1020.1 0.0
23/12:06am 10.1 8.4 9.8 98 0.2 WNW 9 11 5 6 1020.2 1020.2 0.0
23/12:05am 10.1 8.4 9.8 98 0.2 WNW 9 11 5 6 1020.2 1020.2 0.0
23/12:00am 9.9 8.1 9.6 98 0.1 WNW 9 13 5 7 1020.2 1020.2 0.0
 
Date/Time
EDT
Temp
°C
App
Temp
°C
Dew
Point
°C
Rel
Hum
%
Delta-T
°C
Wind Press
QNH
hPa
Press
MSL
hPa
Rain since
9am
mm
Dir  Spd
km/h
Gust
km/h
Spd
kts
Gust
kts
22/11:49pm 9.6 7.8 9.3 98 0.1 WNW 9 13 5 7 1020.4 1020.4 0.0
22/11:30pm 9.5 7.6 9.2 98 0.1 WNW 9 11 5 6 1020.4 1020.4 0.0
22/11:00pm 9.8 8.0 9.3 97 0.2 WNW 9 11 5 6 1020.5 1020.5 0.0
22/10:30pm 9.5 7.9 8.9 96 0.3 WNW 7 11 4 6 1020.5 1020.5 0.0
22/10:00pm 9.5 7.1 8.7 95 0.4 WSW 11 13 6 7 1020.5 1020.5 0.0
22/09:30pm 10.5 8.0 9.7 95 0.4 SW 13 15 7 8 1020.4 1020.4 0.0
22/09:00pm 11.2 8.2 10.6 96 0.3 WSW 17 20 9 11 1020.4 1020.4 0.0
22/08:30pm 10.7 8.1 9.5 92 0.6 SW 13 17 7 9 1020.3 1020.3 0.0
22/08:00pm 11.5 10.0 10.6 94 0.5 WSW 9 13 5 7 1020.0 1020.0 0.0
22/07:54pm 11.6 9.8 10.7 94 0.5 SW 11 15 6 8 1020.0 1020.0 0.0
22/07:30pm 11.9 9.8 11.1 95 0.4 SW 13 22 7 12 1019.8 1019.8 0.0
22/07:28pm 11.8 9.7 11.0 95 0.4 SW 13 22 7 12 1019.7 1019.7 0.0
22/07:00pm 12.0 9.2 11.4 96 0.3 WSW 17 20 9 11 1019.6 1019.6 0.0
22/06:30pm 13.1 9.1 10.5 84 1.4 SSW 22 28 12 15 1019.5 1019.5 0.0
22/06:00pm 13.1 9.7 10.5 84 1.4 SW 19 28 10 15 1019.3 1019.3 0.0
22/05:30pm 13.4 9.1 10.6 83 1.5 SW 24 30 13 16 1019.3 1019.3 0.0
22/05:00pm 14.0 10.2 11.0 82 1.6 SW 22 30 12 16 1019.0 1019.0 0.0
22/04:30pm 14.5 10.2 10.9 79 1.9 SW 24 28 13 15 1018.9 1018.9 0.0
22/04:13pm 14.4 10.8 10.6 78 2.0 SW 20 26 11 14 1019.0 1019.0 0.0
22/04:00pm 14.8 11.3 12.1 84 1.5 SSW 22 32 12 17 1019.0 1019.0 0.0
22/03:39pm 13.7 10.1 11.9 89 1.0 SSW 22 28 12 15 1019.1 1019.1 0.0
22/03:30pm 14.0 9.7 12.0 88 1.1 SSW 26 35 14 19 1019.1 1019.1 0.0
22/03:00pm 15.1 11.2 12.1 82 1.6 SW 24 33 13 18 1019.2 1019.2 0.0
22/02:30pm 14.7 10.6 11.5 81 1.7 SW 24 32 13 17 1019.4 1019.4 0.0
22/02:27pm 14.7 10.7 11.8 83 1.6 SSW 24 32 13 17 1019.4 1019.4 0.0
22/02:00pm 14.6 9.8 11.6 82 1.6 SSW 28 35 15 19 1019.5 1019.5 0.0
22/01:30pm 14.4 9.5 11.4 82 1.6 SW 28 37 15 20 1019.6 1019.6 0.0
22/01:25pm 14.0 8.7 11.3 84 1.4 SW 30 39 16 21 1019.6 1019.6 0.0
22/01:00pm 15.1 10.4 11.9 81 1.7 SW 28 35 15 19 1019.6 1019.6 0.0
22/12:30pm 15.3 10.9 12.8 85 1.4 SW 28 35 15 19 1019.4 1019.4 0.0
22/12:00pm 13.9 9.3 11.1 83 1.5 SW 26 33 14 18 1020.0 1020.0 0.0
22/11:42am 14.3 9.5 11.5 83 1.5 SW 28 37 15 20 1020.0 1020.0 0.0
22/11:30am 14.5 9.8 12.0 85 1.4 SSW 28 33 15 18 1020.1 1020.1 0.0
22/11:02am 13.5 8.5 10.9 84 1.4 SW 28 33 15 18 1020.2 1020.2 0.0
22/11:00am 13.7 8.8 11.2 85 1.3 SW 28 33 15 18 1020.2 1020.2 0.0
22/10:49am 13.5 9.1 11.6 88 1.0 SW 26 33 14 18 1020.3 1020.3 0.0
22/10:30am 13.2 8.4 11.8 91 0.8 SW 28 33 15 18 1020.3 1020.3 0.0
22/10:00am 12.8 8.6 11.2 90 0.8 SW 24 32 13 17 1020.0 1020.0 0.0
22/09:37am 12.8 8.6 11.2 90 0.8 SW 24 33 13 18 1020.0 1020.0 0.0
22/09:30am 12.7 7.8 11.4 92 0.7 SW 28 35 15 19 1020.0 1020.0 0.0
22/09:15am 12.7 8.6 11.4 92 0.7 SW 24 32 13 17 1019.9 1019.9 0.0
22/09:00am 12.3 9.0 11.7 96 0.3 SW 20 30 11 16 1019.9 1019.9 1.4
22/08:57am 12.5 9.5 12.0 97 0.3 SW 19 24 10 13 1019.9 1019.9 1.4
22/08:31am 11.6 8.2 11.1 97 0.3 WSW 20 32 11 17 1019.9 1019.9 1.4
22/08:30am 11.5 7.6 10.9 96 0.3 WSW 22 33 12 18 1019.9 1019.9 1.4
22/08:20am 11.6 7.7 10.8 95 0.4 SW 22 32 12 17 1019.9 1019.9 1.4
22/08:19am 11.6 8.1 10.8 95 0.4 SW 20 32 11 17 1019.9 1019.9 1.4
22/08:00am 11.6 8.6 10.8 95 0.4 WSW 17 24 9 13 1019.7 1019.7 1.2
22/07:36am 11.4 8.3 10.3 93 0.6 WSW 17 24 9 13 1019.6 1019.6 1.2
22/07:30am 11.4 8.7 10.3 93 0.6 WSW 15 20 8 11 1019.5 1019.5 1.2
22/07:26am 11.3 8.6 10.2 93 0.6 WSW 15 17 8 9 1019.5 1019.5 1.2
22/07:09am 10.9 8.0 9.7 92 0.6 WSW 15 19 8 10 1019.3 1019.3 1.2
22/07:00am 10.9 8.4 9.7 92 0.6 WSW 13 19 7 10 1019.3 1019.3 1.2
22/06:30am 10.6 7.5 8.9 89 0.8 WSW 15 20 8 11 1019.2 1019.2 1.2
22/06:00am 10.2 7.0 8.3 88 0.9 WSW 15 17 8 9 1019.1 1019.1 1.2
22/05:30am 10.5 6.3 8.3 86 1.1 SW 20 28 11 15 1019.1 1019.1 1.2
22/05:00am 10.2 7.1 9.0 92 0.6 W 15 19 8 10 1019.1 1019.1 1.2
22/04:30am 10.1 7.4 9.0 93 0.5 WSW 13 19 7 10 1019.5 1019.5 1.2
22/04:20am 10.1 7.9 9.3 95 0.4 WSW 11 15 6 8 1019.6 1019.6 1.2
22/04:00am 9.9 7.2 9.1 95 0.4 WSW 13 19 7 10 1019.6 1019.6 1.2
22/03:54am 10.0 6.6 9.2 95 0.4 WSW 17 22 9 12 1019.8 1019.8 1.2
22/03:30am 10.6 6.2 8.9 89 0.8 WSW 22 32 12 17 1020.0 1020.0 0.8
22/03:00am 10.5 7.0 8.6 88 0.9 WSW 17 26 9 14 1020.1 1020.1 0.8
22/02:30am 10.2 7.5 9.0 92 0.6 W 13 19 7 10 1020.1 1020.1 0.8
22/02:00am 10.0 6.7 7.9 87 1.0 WSW 15 20 8 11 1020.8 1020.8 0.8
22/01:30am 10.5 7.1 9.1 91 0.7 WSW 17 24 9 13 1021.4 1021.4 0.8
22/01:00am 10.6 6.4 8.4 86 1.1 WSW 20 26 11 14 1021.7 1021.7 0.8
22/12:30am 10.4 7.4 9.3 93 0.5 W 15 20 8 11 1021.8 1021.8 0.8
22/12:00am 10.2 4.7 9.1 93 0.5 SW 28 37 15 20 1022.0 1022.0 0.8
 
Date/Time
EDT
Temp
°C
App
Temp
°C
Dew
Point
°C
Rel
Hum
%
Delta-T
°C
Wind Press
QNH
hPa
Press
MSL
hPa
Rain since
9am
mm
Dir  Spd
km/h
Gust
km/h
Spd
kts
Gust
kts
21/11:58pm 10.3 5.3 9.5 95 0.4 WSW 26 37 14 20 1022.0 1022.0 0.8
21/11:34pm 10.6 6.8 9.8 95 0.4 WSW 20 28 11 15 1022.2 1022.2 0.6
21/11:30pm 10.4 6.7 9.6 95 0.4 WSW 19 28 10 15 1022.2 1022.2 0.6
21/11:00pm 10.3 6.0 9.5 95 0.4 WSW 22 32 12 17 1022.5 1022.5 0.6
21/10:30pm 10.5 7.0 8.8 89 0.8 W 17 22 9 12 1022.5 1022.5 0.4
21/10:00pm 10.2 7.4 8.6 90 0.8 W 13 17 7 9 1022.8 1022.8 0.4
21/09:30pm 10.8 6.8 8.4 85 1.2 WSW 19 26 10 14 1022.8 1022.8 0.4
21/09:00pm 11.0 7.0 8.1 82 1.4 W 19 28 10 15 1023.0 1023.0 0.4
21/08:30pm 10.9 7.3 8.5 85 1.2 W 17 20 9 11 1023.1 1023.1 0.4
21/08:00pm 10.9 6.8 8.8 87 1.0 W 20 28 11 15 1023.2 1023.2 0.4
21/07:30pm 11.0 7.1 8.8 86 1.1 WSW 19 24 10 13 1023.2 1023.2 0.4
21/07:00pm 11.1 6.4 9.4 89 0.9 SW 24 35 13 19 1023.2 1023.2 0.4
21/06:49pm 10.9 6.4 10.0 94 0.5 SW 24 30 13 16 1023.3 1023.3 0.4
21/06:39pm 10.6 5.3 9.7 94 0.5 SW 28 37 15 20 1023.3 1023.3 0.4
21/06:30pm 11.6 7.8 9.7 88 1.0 WSW 20 35 11 19 1023.3 1023.3 0.0
21/06:00pm 11.7 5.9 9.3 85 1.2 WSW 30 39 16 21 1023.4 1023.4 0.0
21/05:30pm 12.2 6.5 9.8 85 1.2 SW 30 37 16 20 1023.5 1023.5 0.0
21/05:00pm 11.9 6.0 10.3 90 0.8 SW 32 39 17 21 1023.7 1023.7 0.0
21/04:30pm 13.0 7.9 9.3 78 1.9 WSW 26 33 14 18 1023.9 1023.9 0.0
21/04:00pm 12.6 6.7 8.9 78 1.9 SW 30 37 16 20 1024.1 1024.1 0.0
21/03:30pm 12.9 6.4 9.0 77 2.0 SW 33 43 18 23 1024.4 1024.5 0.0
21/03:00pm 13.4 7.3 8.3 71 2.5 WSW 30 37 16 20 1024.7 1024.8 0.0
21/02:30pm 12.8 7.6 8.7 76 2.1 WSW 26 35 14 19 1025.0 1025.1 0.0
21/02:00pm 12.6 7.0 8.9 78 1.9 WSW 28 33 15 18 1025.2 1025.3 0.0
21/01:30pm 13.1 8.2 8.4 73 2.3 SW 24 33 13 18 1025.4 1025.5 0.0
21/01:00pm 13.4 9.0 8.9 74 2.3 WSW 22 33 12 18 1025.8 1025.9 0.0
21/12:30pm 12.9 8.0 8.6 75 2.2 WSW 24 35 13 19 1026.1 1026.2 0.0
21/12:00pm 13.0 8.0 7.9 71 2.5 WSW 24 32 13 17 1026.5 1026.6 0.0
21/11:30am 12.1 6.2 8.9 81 1.6 WSW 30 39 16 21 1026.8 1026.9 0.0
21/11:00am 11.8 6.4 7.9 77 1.9 WSW 26 35 14 19 1027.1 1027.2 0.0
21/10:30am 12.8 7.0 7.9 72 2.4 SW 28 35 15 19 1027.3 1027.4 0.0
21/10:00am 12.1 7.1 8.2 77 1.9 WSW 24 30 13 16 1027.5 1027.5 0.0
21/09:30am 11.0 8.1 8.1 82 1.4 SW 13 20 7 11 1027.3 1027.4 0.0
21/09:00am 10.9 8.5 8.7 86 1.1 SW 11 17 6 9 1027.5 1027.5 0.0
21/08:30am 10.5 6.4 7.7 83 1.4 SW 19 22 10 12 1027.5 1027.5 0.0
21/08:00am 10.2 8.0 7.8 85 1.2 SW 9 13 5 7 1027.2 1027.3 0.0
21/07:30am 10.3 6.4 7.2 81 1.5 SW 17 24 9 13 1027.3 1027.4 0.0
21/07:00am 10.4 6.2 7.5 82 1.4 SW 19 30 10 16 1027.1 1027.2 0.0
21/06:30am 10.6 6.0 6.7 77 1.8 SW 20 26 11 14 1027.0 1027.1 0.0
21/06:00am 10.6 5.5 5.8 72 2.2 SW 22 30 12 16 1027.0 1027.1 0.0
21/05:30am 10.7 5.5 5.5 70 2.4 SW 22 30 12 16 1027.2 1027.3 0.0
21/05:00am 10.5 6.2 7.0 79 1.7 SW 19 22 10 12 1027.1 1027.2 0.0
21/04:30am 10.7 6.6 6.1 73 2.1 SW 17 30 9 16 1027.2 1027.3 0.0
21/04:00am 10.6 6.1 6.0 73 2.1 SSW 19 24 10 13 1027.6 1027.6 0.0
21/03:30am 10.6 6.3 7.1 79 1.7 SW 19 28 10 15 1027.9 1027.9 0.0
21/03:00am 10.6 7.3 6.6 76 1.9 SW 13 20 7 11 1028.0 1028.0 0.0
21/02:30am 10.6 6.5 6.0 73 2.1 SW 17 24 9 13 1028.5 1028.5 0.0
21/02:00am 10.5 7.2 6.5 76 1.9 SW 13 24 7 13 1029.0 1029.0 0.0
21/01:30am 10.2 6.8 6.0 75 1.9 SW 13 17 7 9 1029.3 1029.3 0.0
21/01:00am 10.6 5.8 5.6 71 2.3 SW 20 28 11 15 1029.5 1029.5 0.0
21/12:30am 10.2 6.9 6.2 76 1.9 SW 13 17 7 9 1029.6 1029.6 0.0
21/12:00am 10.6 5.3 5.2 69 2.4 SW 22 28 12 15 1029.9 1029.9 0.0
 
Date/Time
EDT
Temp
°C
App
Temp
°C
Dew
Point
°C
Rel
Hum
%
Delta-T
°C
Wind Press
QNH
hPa
Press
MSL
hPa
Rain since
9am
mm
Dir  Spd
km/h
Gust
km/h
Spd
kts
Gust
kts
20/11:30pm 10.7 5.9 5.7 71 2.3 SW 20 26 11 14 1030.2 1030.2 0.0
20/11:00pm 10.5 6.8 6.1 74 2.0 SW 15 20 8 11 1030.1 1030.1 0.0
20/10:30pm 10.4 6.6 5.6 72 2.2 SW 15 17 8 9 1030.2 1030.2 0.0
20/10:00pm 10.5 6.8 6.1 74 2.0 SSW 15 20 8 11 1030.5 1030.5 0.0
20/09:30pm 10.5 5.9 5.5 71 2.3 SW 19 22 10 12 1030.8 1030.8 0.0
20/09:00pm 10.5 5.9 5.5 71 2.3 SW 19 24 10 13 1030.8 1030.8 0.0
20/08:30pm 10.7 5.8 5.0 68 2.6 SSW 20 28 11 15 1030.6 1030.6 0.0
20/08:00pm 10.6 6.9 6.4 75 2.0 SSW 15 17 8 9 1030.4 1030.4 0.0
20/07:30pm 10.7 5.9 5.5 70 2.4 SW 20 30 11 16 1030.2 1030.2 0.0

Other Formats:

Comma delimited format used in spreadsheet applications
http://www.bom.gov.au/fwo/IDV60801/IDV60801.94837.axf

JavaScript Object Notation format (JSON) in row-major order
http://www.bom.gov.au/fwo/IDV60801/IDV60801.94837.json